DW8626 Madrid ES current weather conditions

sailwx.info

Wind from 200 at 9 knots gusting 13

Air temperature 25.0° C
Dewpoint 4.1° C

Last reported at 2014-Sep-16 13:58 UTC.
Time now 2014-Sep-16 15:32 UTC

Location: N 40°29' W 003°43'.
View on Google Maps.

See reports from other nearby stations

  
Tides and Currents Weather Stations Pressure Air Temp Water Temp Dewpoint Dewpoint Depression Visibility Wind Speed Wind Dir Waves Ship Positions
date/time (UTC)wind fromknots sea level pressurealtimeterstation pressurevisibilityair tempwater tempwave heightnotes
2014-Sep-16 13:58 200 9 gusting 13 25.0
2014-Sep-16 13:42 141 6 gusting 13 25.6
2014-Sep-16 13:12 188 3 gusting 12 25.0
2014-Sep-16 12:12 149 6 gusting 8 25.6
2014-Sep-16 12:00 180 5 gusting 7 25.6
2014-Sep-16 11:12 141 7 gusting 9 23.9
2014-Sep-16 09:43 155 5 gusting 6 23.3
2014-Sep-16 08:58 156 22.2
2014-Sep-16 08:27 174 3 gusting 7 20.6
2014-Sep-16 08:12 148 0 gusting 9 20.6
2014-Sep-16 07:42 084 19.4
2014-Sep-16 07:27 160 18.9
2014-Sep-16 07:12 103 1 gusting 5 18.9
2014-Sep-16 06:13 077 0 gusting 4 17.8
2014-Sep-16 05:58 036 1 gusting 5 17.8
2014-Sep-16 05:42 073 2 gusting 5 17.8
2014-Sep-16 05:26 074 0 gusting 3 17.2
2014-Sep-16 05:11 056 1 gusting 7 17.2
2014-Sep-16 04:56 028 2 gusting 6 17.8
2014-Sep-16 04:41 039 3 gusting 6 17.8
2014-Sep-16 04:12 041 0 gusting 3 17.8
2014-Sep-16 03:56 036 1 gusting 4 17.8
2014-Sep-16 03:41 016 17.8
2014-Sep-16 03:26 023 2 gusting 7 17.8
2014-Sep-16 03:11 051 0 gusting 6 17.8
2014-Sep-16 02:56 036 3 gusting 6 18.3
2014-Sep-16 02:41 055 18.3
2014-Sep-16 02:26 055 5 gusting 6 18.3
2014-Sep-16 02:11 061 4 gusting 7 18.9
2014-Sep-16 01:57 065 18.9
2014-Sep-16 01:42 045 18.9
2014-Sep-16 01:26 004 18.9
2014-Sep-16 01:11 029 18.9
2014-Sep-16 00:56 065 19.4
2014-Sep-16 00:41 072 19.4
2014-Sep-16 00:26 006 19.4
2014-Sep-16 00:11 032 19.4
2014-Sep-15 23:56 075 20.0
2014-Sep-15 23:41 082 20.0
2014-Sep-15 23:27 090 20.6
2014-Sep-15 23:12 054 21.1
2014-Sep-15 22:56 099 21.1
2014-Sep-15 22:41 012 20.0
2014-Sep-15 22:26 012 21.1
2014-Sep-15 22:11 012 21.1
2014-Sep-15 21:56 221 20.6
2014-Sep-15 21:41 221 21.7
2014-Sep-15 21:26 221 21.1
2014-Sep-15 21:11 221 21.7
2014-Sep-15 20:57 221 21.1
2014-Sep-15 20:42 221 21.1
2014-Sep-15 20:26 221 21.7
2014-Sep-15 20:11 216 21.1
2014-Sep-15 19:56 215 21.7
2014-Sep-15 19:41 215 22.2
2014-Sep-15 19:26 216 22.8
2014-Sep-15 19:11 230 22.8
2014-Sep-15 18:56 217 22.8
2014-Sep-15 18:43 231 23.3
2014-Sep-15 17:58 255 23.9
2014-Sep-15 17:42 241 3 gusting 7 24.4
2014-Sep-15 17:29 205 2 gusting 6 24.4
2014-Sep-15 17:14 207 5 gusting 10 24.4
2014-Sep-15 16:43 239 6 gusting 11 24.4
2014-Sep-15 16:01 173 5 gusting 12 24.4
2014-Sep-15 15:42 288 24.4
2014-Sep-15 15:27 241 7 gusting 10 24.4
2014-Sep-15 15:12 210 0 gusting 5 23.9
2014-Sep-15 14:43 273 5 gusting 9 24.4
2014-Sep-15 14:29 239 1 gusting 9 24.4
2014-Sep-15 13:57 181 7 gusting 11 23.9
2014-Sep-15 13:43 245 6 gusting 9 23.9
2014-Sep-15 12:43 120 6 gusting 9 22.8
2014-Sep-15 12:13 191 3 gusting 9 22.2
2014-Sep-15 11:59 231 6 gusting 7 21.7
2014-Sep-15 11:43 262 0 gusting 8 22.8
2014-Sep-15 11:28 242 4 gusting 8 22.8
2014-Sep-15 11:13 221 4 gusting 9 21.7
2014-Sep-15 10:47 268 5 gusting 6 21.1
2014-Sep-15 10:11 278 21.1
2014-Sep-15 09:56 222 1 gusting 7 21.1
2014-Sep-15 00:12 115 21.7
2014-Sep-14 23:57 146 21.1
2014-Sep-14 23:27 227 20.6
2014-Sep-14 23:11 226 21.1
2014-Sep-14 22:57 226 21.1
2014-Sep-14 22:42 224 21.1
2014-Sep-14 22:29 233 21.1
2014-Sep-14 22:13 260 21.7
2014-Sep-14 21:57 271 21.7
2014-Sep-14 21:41 243 0 gusting 3 21.7
2014-Sep-14 21:27 232 21.7
2014-Sep-14 21:12 262 21.7
2014-Sep-14 20:57 254 22.2
2014-Sep-14 20:41 262 22.2
2014-Sep-14 20:26 228 22.8
2014-Sep-14 20:11 295 2 gusting 7 22.8
2014-Sep-14 19:59 255 4 gusting 5 23.3
2014-Sep-14 19:43 222 23.3
2014-Sep-14 19:27 247 1 gusting 6 23.3
2014-Sep-14 19:12 266 1 gusting 7 23.9
2014-Sep-14 18:57 219 6 gusting 8 23.9
2014-Sep-14 17:43 170 0 gusting 15 25.0
2014-Sep-14 16:43 231 8 gusting 17 25.6
2014-Sep-14 16:27 219 10 gusting 14 26.1
2014-Sep-14 16:14 178 7 gusting 13 26.1
2014-Sep-14 15:58 235 8 gusting 14 26.1
2014-Sep-14 15:29 243 9 gusting 17 26.1
2014-Sep-14 15:12 145 5 gusting 11 26.7